createdAt,value
2022-09-20T00:01:33.727Z,99641.00
2022-09-20T00:04:06.798Z,99646.00
2022-09-20T00:06:35.967Z,99641.00
2022-09-20T00:09:05.132Z,99648.00
2022-09-20T00:11:36.722Z,99644.00
2022-09-20T00:14:09.305Z,99647.00
2022-09-20T00:16:41.279Z,99651.00
2022-09-20T00:19:15.929Z,99647.00
2022-09-20T00:21:43.767Z,99642.00
2022-09-20T00:24:12.523Z,99642.00
2022-09-20T00:26:40.625Z,99645.00
2022-09-20T00:29:09.869Z,99641.00
2022-09-20T00:31:40.274Z,99651.00
2022-09-20T00:34:25.748Z,99646.00
2022-09-20T00:36:53.597Z,99655.00
2022-09-20T00:39:21.547Z,99653.00
2022-09-20T00:41:49.412Z,99649.00
2022-09-20T00:44:48.729Z,99655.00
2022-09-20T00:47:29.795Z,99651.00
2022-09-20T00:50:08.300Z,99650.00
2022-09-20T00:52:38.040Z,99658.00
2022-09-20T00:55:09.663Z,99661.00
2022-09-20T00:57:39.345Z,99663.00
2022-09-20T01:00:14.249Z,99662.00
2022-09-20T01:02:47.660Z,99664.00
2022-09-20T01:05:17.800Z,99660.00
2022-09-20T01:07:49.160Z,99659.00
2022-09-20T01:10:17.224Z,99662.00
2022-09-20T01:12:47.826Z,99658.00
2022-09-20T01:15:18.088Z,99653.00
2022-09-20T01:17:51.970Z,99654.00
2022-09-20T01:20:25.840Z,99653.00
2022-09-20T01:23:38.688Z,99659.00
2022-09-20T01:27:11.076Z,99654.00
2022-09-20T01:30:01.215Z,99649.00
2022-09-20T01:32:59.924Z,99661.00
2022-09-20T01:35:30.080Z,99648.00
2022-09-20T01:42:17.440Z,99656.00
2022-09-20T01:45:01.837Z,99661.00
2022-09-20T01:47:39.427Z,99658.00
2022-09-20T01:50:21.846Z,99667.00
2022-09-20T01:53:39.925Z,99654.00
2022-09-20T01:56:54.633Z,99662.00
2022-09-20T01:59:57.730Z,99666.00
2022-09-20T02:02:51.602Z,99654.00
2022-09-20T02:05:48.913Z,99665.00
2022-09-20T02:09:09.103Z,99669.00
2022-09-20T02:11:51.946Z,99659.00
2022-09-20T02:14:48.926Z,99666.00
2022-09-20T02:17:30.671Z,99665.00
2022-09-20T02:20:27.943Z,99674.00
2022-09-20T02:23:21.918Z,99676.00
2022-09-20T02:26:06.009Z,99678.00
2022-09-20T02:28:54.785Z,99678.00
2022-09-20T02:31:54.440Z,99678.00
2022-09-20T02:34:48.705Z,99683.00
2022-09-20T02:37:52.784Z,99681.00
2022-09-20T02:40:46.688Z,99690.00
2022-09-20T02:43:26.811Z,99695.00
2022-09-20T02:46:04.973Z,99696.00
2022-09-20T02:48:46.628Z,99690.00
2022-09-20T02:51:25.373Z,99690.00
2022-09-20T02:54:04.476Z,99687.00
2022-09-20T02:56:43.739Z,99688.00
2022-09-20T02:59:27.287Z,99692.00
2022-09-20T03:02:09.005Z,99695.00
2022-09-20T03:04:56.901Z,99692.00
2022-09-20T03:07:38.133Z,99701.00
2022-09-20T03:10:19.868Z,99693.00
2022-09-20T03:13:07.248Z,99690.00
2022-09-20T03:15:53.284Z,99694.00
2022-09-20T03:18:35.653Z,99689.00
2022-09-20T03:21:26.742Z,99698.00
2022-09-20T03:24:11.213Z,99701.00
2022-09-20T03:26:55.947Z,99691.00
2022-09-20T03:29:48.426Z,99700.00
2022-09-20T03:32:35.441Z,99695.00
2022-09-20T03:35:20.455Z,99696.00
2022-09-20T03:38:11.992Z,99691.00
2022-09-20T03:41:07.228Z,99695.00
2022-09-20T03:44:00.413Z,99693.00
2022-09-20T03:46:30.567Z,99696.00
2022-09-20T03:49:54.703Z,99686.00
2022-09-20T03:52:47.644Z,99687.00
2022-09-20T03:55:55.251Z,99696.00
2022-09-20T03:58:50.529Z,99702.00
2022-09-20T04:01:45.720Z,99694.00
2022-09-20T04:04:23.818Z,99700.00
2022-09-20T04:07:12.489Z,99697.00
2022-09-20T04:10:07.853Z,99703.00
2022-09-20T04:12:51.582Z,99709.00
2022-09-20T04:15:36.544Z,99711.00
2022-09-20T04:18:19.354Z,99708.00
2022-09-20T04:20:54.088Z,99715.00
2022-09-20T04:23:39.549Z,99708.00
2022-09-20T04:26:08.357Z,99711.00
2022-09-20T04:28:47.315Z,99703.00
2022-09-20T04:31:31.611Z,99709.00
2022-09-20T04:34:05.423Z,99713.00
2022-09-20T04:36:56.870Z,99717.00
2022-09-20T04:39:42.362Z,99722.00
2022-09-20T04:43:09.911Z,99722.00
2022-09-20T04:46:28.802Z,99719.00
2022-09-20T04:49:48.049Z,99728.00
2022-09-20T04:53:04.067Z,99723.00
2022-09-20T04:55:52.838Z,99730.00
2022-09-20T04:58:42.149Z,99733.00
2022-09-20T05:02:15.328Z,99734.00
2022-09-20T05:05:36.236Z,99735.00
2022-09-20T05:09:03.470Z,99727.00
2022-09-20T05:12:19.075Z,99732.00
2022-09-20T05:15:23.232Z,99733.00
2022-09-20T05:18:33.101Z,99745.00
2022-09-20T05:21:18.307Z,99749.00
2022-09-20T05:24:06.720Z,99748.00
2022-09-20T05:26:52.572Z,99753.00
2022-09-20T05:29:31.168Z,99748.00
2022-09-20T05:32:10.495Z,99749.00
2022-09-20T05:34:47.672Z,99756.00
2022-09-20T05:37:33.460Z,99752.00
2022-09-20T05:40:14.074Z,99762.00
2022-09-20T05:42:53.949Z,99763.00
2022-09-20T05:45:49.004Z,99771.00
2022-09-20T05:48:27.187Z,99774.00
2022-09-20T05:51:06.400Z,99774.00
2022-09-20T05:54:19.664Z,99778.00
2022-09-20T05:57:08.259Z,99777.00
2022-09-20T05:59:57.525Z,99785.00
2022-09-20T06:02:42.101Z,99785.00
2022-09-20T06:05:17.424Z,99782.00
2022-09-20T06:08:08.587Z,99786.00
2022-09-20T06:11:04.915Z,99791.00
2022-09-20T06:14:03.607Z,99788.00
2022-09-20T06:16:47.591Z,99789.00
2022-09-20T06:19:27.321Z,99788.00
2022-09-20T06:22:03.631Z,99782.00
2022-09-20T06:24:43.001Z,99791.00
2022-09-20T06:27:16.319Z,99790.00
2022-09-20T06:29:53.277Z,99785.00
2022-09-20T06:32:21.280Z,99794.00
2022-09-20T06:34:50.779Z,99797.00
2022-09-20T06:38:02.449Z,99797.00
2022-09-20T06:40:59.665Z,99796.00
2022-09-20T06:43:27.781Z,99794.00
2022-09-20T06:45:55.686Z,99792.00
2022-09-20T06:48:25.181Z,99792.00
2022-09-20T06:50:53.318Z,99803.00
2022-09-20T06:53:30.343Z,99806.00
2022-09-20T06:56:00.991Z,99811.00
2022-09-20T06:58:29.226Z,99825.00
2022-09-20T07:00:57.191Z,99819.00
2022-09-20T07:03:25.267Z,99823.00
2022-09-20T07:05:53.541Z,99824.00
2022-09-20T07:08:21.479Z,99830.00
2022-09-20T07:10:49.360Z,99836.00
2022-09-20T07:13:20.848Z,99838.00
2022-09-20T07:15:49.217Z,99831.00
2022-09-20T07:18:18.243Z,99837.00
2022-09-20T07:20:46.417Z,99834.00
2022-09-20T07:23:15.719Z,99832.00
2022-09-20T07:25:43.777Z,99852.00
2022-09-20T07:28:19.756Z,99841.00
2022-09-20T07:30:50.054Z,99846.00
2022-09-20T07:33:21.459Z,99844.00
2022-09-20T07:35:49.980Z,99846.00
2022-09-20T07:38:18.173Z,99861.00
2022-09-20T07:40:46.383Z,99865.00
2022-09-20T07:43:14.648Z,99855.00
2022-09-20T07:45:42.525Z,99866.00
2022-09-20T07:48:11.750Z,99865.00
2022-09-20T07:50:39.733Z,99865.00
2022-09-20T07:53:07.570Z,99865.00
2022-09-20T07:55:35.655Z,99872.00
2022-09-20T07:58:03.525Z,99868.00
2022-09-20T08:00:31.327Z,99876.00
2022-09-20T08:03:01.010Z,99877.00
2022-09-20T08:05:31.797Z,99881.00
2022-09-20T08:08:01.040Z,99881.00
2022-09-20T08:10:28.989Z,99883.00
2022-09-20T08:15:44.924Z,99887.00
2022-09-20T08:18:13.336Z,99888.00
2022-09-20T08:20:42.588Z,99884.00
2022-09-20T08:23:22.968Z,99889.00
2022-09-20T08:25:51.880Z,99892.00
2022-09-20T08:28:19.784Z,99893.00
2022-09-20T08:30:47.827Z,99892.00
2022-09-20T08:33:15.799Z,99895.00
2022-09-20T08:35:45.254Z,99889.00
2022-09-20T08:41:07.617Z,99895.00
2022-09-20T08:43:45.670Z,99898.00
2022-09-20T08:46:23.321Z,99895.00
2022-09-20T08:48:52.095Z,99892.00
2022-09-20T08:51:23.407Z,99897.00
2022-09-20T08:53:55.057Z,99898.00
2022-09-20T08:56:24.002Z,99893.00
2022-09-20T08:58:53.180Z,99894.00
2022-09-20T09:01:25.478Z,99894.00
2022-09-20T09:03:59.772Z,99898.00
2022-09-20T09:06:29.233Z,99898.00
2022-09-20T09:09:00.591Z,99890.00
2022-09-20T09:11:28.457Z,99901.00
2022-09-20T09:14:02.382Z,99905.00
2022-09-20T09:16:35.794Z,99907.00
2022-09-20T09:19:36.556Z,99906.00
2022-09-20T09:22:08.033Z,99910.00
2022-09-20T09:24:36.029Z,99909.00
2022-09-20T09:27:14.947Z,99909.00
2022-09-20T09:29:51.978Z,99901.00
2022-09-20T09:32:28.994Z,99898.00
2022-09-20T09:34:58.027Z,99893.00
2022-09-20T09:37:31.275Z,99908.00
2022-09-20T09:40:17.591Z,99904.00
2022-09-20T09:42:54.625Z,99911.00
2022-09-20T09:45:36.086Z,99906.00
2022-09-20T09:48:19.375Z,99902.00
2022-09-20T09:50:48.277Z,99906.00
2022-09-20T09:53:23.295Z,99901.00
2022-09-20T09:56:24.309Z,99904.00
2022-09-20T09:59:17.829Z,99899.00
2022-09-20T10:01:56.282Z,99907.00
2022-09-20T10:04:36.670Z,99901.00
2022-09-20T10:07:14.873Z,99909.00
2022-09-20T10:10:04.113Z,99910.00
2022-09-20T10:12:51.646Z,99905.00
2022-09-20T10:15:35.399Z,99909.00
2022-09-20T10:18:31.435Z,99906.00
2022-09-20T10:21:12.810Z,99896.00
2022-09-20T10:24:18.555Z,99898.00
2022-09-20T10:27:16.228Z,99910.00
2022-09-20T10:30:03.248Z,99901.00
2022-09-20T10:32:51.217Z,99901.00
2022-09-20T10:35:30.620Z,99898.00
2022-09-20T10:38:16.697Z,99899.00
2022-09-20T10:41:29.229Z,99911.00
2022-09-20T10:44:12.202Z,99912.00
2022-09-20T10:46:52.416Z,99912.00
2022-09-20T10:49:36.583Z,99909.00
2022-09-20T10:52:28.567Z,99909.00
2022-09-20T10:55:27.293Z,99909.00
2022-09-20T10:58:33.362Z,99914.00
2022-09-20T11:01:17.654Z,99919.00
2022-09-20T11:04:13.779Z,99916.00
2022-09-20T11:06:52.794Z,99920.00
2022-09-20T11:09:25.862Z,99911.00
2022-09-20T11:12:05.115Z,99908.00
2022-09-20T11:14:41.876Z,99907.00
2022-09-20T11:17:18.559Z,99913.00
2022-09-20T11:20:04.771Z,99916.00
2022-09-20T11:22:43.783Z,99916.00
2022-09-20T11:25:23.094Z,99915.00
2022-09-20T11:28:02.610Z,99910.00
2022-09-20T11:30:34.568Z,99915.00
2022-09-20T11:33:18.167Z,99913.00
2022-09-20T11:35:51.669Z,99916.00
2022-09-20T11:38:27.057Z,99915.00
2022-09-20T11:41:00.337Z,99918.00
2022-09-20T11:43:30.266Z,99920.00
2022-09-20T11:46:04.458Z,99919.00
2022-09-20T11:48:40.852Z,99921.00
2022-09-20T11:51:40.942Z,99915.00
2022-09-20T11:54:39.007Z,99917.00
2022-09-20T11:57:08.727Z,99918.00
2022-09-20T11:59:42.095Z,99923.00
2022-09-20T12:02:22.146Z,99920.00
2022-09-20T12:04:53.703Z,99919.00
2022-09-20T12:07:26.210Z,99920.00
2022-09-20T12:09:58.933Z,99917.00
2022-09-20T12:12:38.924Z,99910.00
2022-09-20T12:15:25.113Z,99909.00
2022-09-20T12:18:29.497Z,99915.00
2022-09-20T12:21:20.722Z,99913.00
2022-09-20T12:24:22.476Z,99909.00
2022-09-20T12:26:57.292Z,99900.00
2022-09-20T12:29:57.237Z,99898.00
2022-09-20T12:33:01.057Z,99898.00
2022-09-20T12:36:18.834Z,99894.00
2022-09-20T12:39:03.244Z,99898.00
2022-09-20T12:41:49.038Z,99893.00
2022-09-20T12:44:32.447Z,99888.00
2022-09-20T12:47:04.152Z,99891.00
2022-09-20T12:50:07.804Z,99887.00
2022-09-20T12:52:56.847Z,99887.00
2022-09-20T12:55:46.139Z,99893.00
2022-09-20T12:58:26.360Z,99895.00
2022-09-20T13:01:31.798Z,99896.00
2022-09-20T13:04:41.184Z,99885.00
2022-09-20T13:07:41.356Z,99899.00
2022-09-20T13:10:31.394Z,99894.00
2022-09-20T13:13:16.361Z,99896.00
2022-09-20T13:15:52.414Z,99892.00
2022-09-20T13:18:22.143Z,99898.00
2022-09-20T13:20:51.435Z,99910.00
2022-09-20T13:23:26.800Z,99901.00
2022-09-20T13:25:58.823Z,99905.00
2022-09-20T13:28:45.281Z,99899.00
2022-09-20T13:31:28.923Z,99904.00
2022-09-20T13:34:14.161Z,99900.00
2022-09-20T13:36:43.207Z,99911.00
2022-09-20T13:39:25.515Z,99908.00
2022-09-20T13:41:54.948Z,99911.00
2022-09-20T13:44:25.378Z,99904.00
2022-09-20T13:46:53.233Z,99905.00
2022-09-20T13:49:23.642Z,99898.00
2022-09-20T13:51:52.602Z,99904.00
2022-09-20T13:54:29.735Z,99900.00
2022-09-20T13:57:03.497Z,99897.00
2022-09-20T13:59:37.187Z,99904.00
2022-09-20T14:02:05.445Z,99901.00
2022-09-20T14:04:33.463Z,99906.00
2022-09-20T14:07:02.409Z,99908.00
2022-09-20T14:09:36.583Z,99916.00
2022-09-20T14:12:07.305Z,99913.00
2022-09-20T14:14:36.637Z,99919.00
2022-09-20T14:17:09.716Z,99915.00
2022-09-20T14:19:43.436Z,99921.00
2022-09-20T14:22:21.468Z,99915.00
2022-09-20T14:25:03.018Z,99909.00
2022-09-20T14:27:32.670Z,99919.00
2022-09-20T14:30:00.544Z,99915.00
2022-09-20T14:32:42.896Z,99913.00
2022-09-20T14:35:19.035Z,99913.00
2022-09-20T14:37:50.769Z,99917.00
2022-09-20T14:40:27.192Z,99921.00
2022-09-20T14:42:59.541Z,99921.00
2022-09-20T14:45:32.402Z,99921.00
2022-09-20T14:48:10.463Z,99925.00
2022-09-20T14:50:43.599Z,99922.00
2022-09-20T14:53:29.812Z,99914.00
2022-09-20T14:56:08.502Z,99925.00
2022-09-20T14:59:22.095Z,99924.00
2022-09-20T15:02:01.066Z,99925.00
2022-09-20T15:04:29.305Z,99936.00
2022-09-20T15:07:01.199Z,99936.00
2022-09-20T15:09:29.888Z,99938.00
2022-09-20T15:12:05.955Z,99934.00
2022-09-20T15:14:37.779Z,99933.00
2022-09-20T15:17:06.870Z,99933.00
2022-09-20T15:19:34.693Z,99938.00
2022-09-20T15:22:03.061Z,99939.00
2022-09-20T15:24:30.979Z,99949.00
2022-09-20T15:26:58.880Z,99949.00
2022-09-20T15:29:27.178Z,99942.00
2022-09-20T15:31:56.493Z,99936.00
2022-09-20T15:34:24.496Z,99936.00
2022-09-20T15:36:53.910Z,99946.00
2022-09-20T15:39:22.182Z,99946.00
2022-09-20T15:41:53.340Z,99944.00
2022-09-20T15:44:21.653Z,99942.00
2022-09-20T15:46:53.063Z,99959.00
2022-09-20T15:49:22.607Z,99960.00
2022-09-20T15:51:50.562Z,99955.00
2022-09-20T15:54:18.659Z,99956.00
2022-09-20T15:56:46.691Z,99964.00
2022-09-20T15:59:16.015Z,99966.00
2022-09-20T16:01:48.080Z,99974.00
2022-09-20T16:04:19.406Z,99972.00
2022-09-20T16:06:51.198Z,99970.00
2022-09-20T16:09:19.917Z,99969.00
2022-09-20T16:11:48.579Z,99970.00
2022-09-20T16:14:17.689Z,99977.00
2022-09-20T16:16:45.714Z,99986.00
2022-09-20T16:19:20.518Z,99973.00
2022-09-20T16:21:57.746Z,99979.00
2022-09-20T16:24:28.697Z,99977.00
2022-09-20T16:26:57.155Z,99993.00
2022-09-20T16:29:25.827Z,99989.00
2022-09-20T16:31:55.631Z,99992.00
2022-09-20T16:34:29.837Z,99993.00
2022-09-20T16:37:02.628Z,99998.00
2022-09-20T16:39:32.251Z,99994.00
2022-09-20T16:42:05.020Z,99998.00
2022-09-20T16:44:35.800Z,100000.00
2022-09-20T16:47:08.829Z,100008.00
2022-09-20T16:49:37.393Z,100010.00
2022-09-20T16:52:07.789Z,100009.00
2022-09-20T16:54:36.072Z,100014.00
2022-09-20T16:57:05.066Z,100016.00
2022-09-20T16:59:33.305Z,100024.00
2022-09-20T17:02:01.189Z,100021.00
2022-09-20T17:04:30.143Z,100031.00
2022-09-20T17:06:58.090Z,100030.00
2022-09-20T17:09:28.303Z,100027.00
2022-09-20T17:11:56.202Z,100038.00
2022-09-20T17:14:24.955Z,100038.00
2022-09-20T17:16:52.778Z,100042.00
2022-09-20T17:19:22.317Z,100047.00
2022-09-20T17:21:51.889Z,100054.00
2022-09-20T17:24:22.159Z,100081.00
2022-09-20T17:26:52.307Z,100084.00
2022-09-20T17:29:21.625Z,100090.00
2022-09-20T17:31:55.542Z,100107.00
2022-09-20T17:34:25.527Z,100109.00
2022-09-20T17:36:55.253Z,100126.00
2022-09-20T17:39:23.864Z,100123.00
2022-09-20T17:41:53.384Z,100118.00
2022-09-20T17:44:21.314Z,100111.00
2022-09-20T17:46:51.128Z,100117.00
2022-09-20T17:49:21.834Z,100110.00
2022-09-20T17:51:52.301Z,100115.00
2022-09-20T17:54:21.927Z,100129.00
2022-09-20T17:56:55.614Z,100123.00
2022-09-20T17:59:24.123Z,100127.00
2022-09-20T18:01:54.188Z,100125.00
2022-09-20T18:04:24.366Z,100129.00
2022-09-20T18:06:54.626Z,100134.00
2022-09-20T18:09:25.414Z,100140.00
2022-09-20T18:11:56.593Z,100134.00
2022-09-20T18:14:27.515Z,100144.00
2022-09-20T18:16:57.940Z,100147.00
2022-09-20T18:19:32.454Z,100144.00
2022-09-20T18:22:01.271Z,100151.00
2022-09-20T18:24:30.379Z,100146.00
2022-09-20T18:27:00.644Z,100154.00
2022-09-20T18:29:29.160Z,100153.00
2022-09-20T18:31:57.974Z,100158.00
2022-09-20T18:34:30.345Z,100147.00
2022-09-20T18:37:01.243Z,100161.00
2022-09-20T18:39:32.324Z,100160.00
2022-09-20T18:42:02.579Z,100163.00
2022-09-20T18:44:31.408Z,100162.00
2022-09-20T18:47:01.358Z,100166.00
2022-09-20T18:49:30.302Z,100173.00
2022-09-20T18:51:59.268Z,100174.00
2022-09-20T18:54:30.163Z,100174.00
2022-09-20T18:56:58.937Z,100176.00
2022-09-20T18:59:29.718Z,100173.00
2022-09-20T19:02:32.212Z,100178.00
2022-09-20T19:05:16.641Z,100182.00
2022-09-20T19:08:03.338Z,100182.00
2022-09-20T19:10:42.504Z,100180.00
2022-09-20T19:13:26.736Z,100177.00
2022-09-20T19:16:16.757Z,100184.00
2022-09-20T19:19:18.840Z,100185.00
2022-09-20T19:21:58.488Z,100186.00
2022-09-20T19:24:46.215Z,100190.00
2022-09-20T19:27:15.581Z,100193.00
2022-09-20T19:29:44.373Z,100204.00
2022-09-20T19:32:18.768Z,100205.00
2022-09-20T19:34:47.408Z,100208.00
2022-09-20T19:37:29.644Z,100202.00
2022-09-20T19:40:22.955Z,100215.00
2022-09-20T19:43:04.168Z,100204.00
2022-09-20T19:45:44.505Z,100210.00
2022-09-20T19:48:23.751Z,100205.00
2022-09-20T19:50:54.546Z,100217.00
2022-09-20T19:53:27.538Z,100212.00
2022-09-20T19:56:01.775Z,100217.00
2022-09-20T19:58:30.431Z,100215.00
2022-09-20T20:00:59.068Z,100220.00
2022-09-20T20:03:29.914Z,100219.00
2022-09-20T20:06:08.401Z,100216.00
2022-09-20T20:08:45.776Z,100215.00
2022-09-20T20:11:28.925Z,100218.00
2022-09-20T20:14:13.153Z,100223.00
2022-09-20T20:16:57.609Z,100224.00
2022-09-20T20:19:47.404Z,100217.00
2022-09-20T20:22:33.927Z,100228.00
2022-09-20T20:25:02.189Z,100231.00
2022-09-20T20:27:31.362Z,100239.00
2022-09-20T20:29:59.699Z,100244.00
2022-09-20T20:32:27.767Z,100239.00
2022-09-20T20:34:56.913Z,100245.00
2022-09-20T20:37:28.049Z,100245.00
2022-09-20T20:39:55.929Z,100245.00
2022-09-20T20:42:24.001Z,100238.00
2022-09-20T20:44:51.868Z,100246.00
2022-09-20T20:47:19.678Z,100250.00
2022-09-20T20:49:50.748Z,100252.00
2022-09-20T20:52:21.823Z,100258.00
2022-09-20T20:54:49.691Z,100255.00
2022-09-20T20:57:18.987Z,100256.00
2022-09-20T20:59:47.198Z,100258.00
2022-09-20T21:02:15.094Z,100259.00
2022-09-20T21:04:42.935Z,100254.00
2022-09-20T21:07:10.824Z,100251.00
2022-09-20T21:09:40.339Z,100261.00
2022-09-20T21:12:09.264Z,100261.00
2022-09-20T21:14:37.291Z,100267.00
2022-09-20T21:17:05.402Z,100263.00
2022-09-20T21:19:33.240Z,100255.00
2022-09-20T21:22:01.083Z,100269.00
2022-09-20T21:24:28.911Z,100265.00
2022-09-20T21:26:58.110Z,100272.00
2022-09-20T21:29:26.317Z,100272.00
2022-09-20T21:31:54.181Z,100273.00
2022-09-20T21:34:22.011Z,100274.00
2022-09-20T21:36:49.877Z,100275.00
2022-09-20T21:39:17.697Z,100275.00
2022-09-20T21:41:47.777Z,100277.00
2022-09-20T21:44:17.513Z,100284.00
2022-09-20T21:46:45.355Z,100289.00
2022-09-20T21:49:14.652Z,100295.00
2022-09-20T21:51:43.949Z,100300.00
2022-09-20T21:54:12.101Z,100300.00
2022-09-20T21:56:41.362Z,100307.00
2022-09-20T21:59:09.903Z,100294.00
2022-09-20T22:01:41.004Z,100297.00
2022-09-20T22:04:11.045Z,100295.00
2022-09-20T22:06:42.042Z,100294.00
2022-09-20T22:09:12.292Z,100310.00
2022-09-20T22:11:42.941Z,100311.00
2022-09-20T22:14:13.050Z,100298.00
2022-09-20T22:16:44.388Z,100304.00
2022-09-20T22:19:15.068Z,100307.00
2022-09-20T22:21:45.465Z,100302.00
2022-09-20T22:24:15.689Z,100314.00
2022-09-20T22:26:45.845Z,100305.00
2022-09-20T22:29:14.286Z,100306.00
2022-09-20T22:31:46.343Z,100307.00
2022-09-20T22:34:17.669Z,100300.00
2022-09-20T22:36:46.763Z,100302.00
2022-09-20T22:39:15.791Z,100303.00
2022-09-20T22:41:45.089Z,100297.00
2022-09-20T22:44:13.150Z,100292.00
2022-09-20T22:46:42.840Z,100301.00
2022-09-20T22:49:10.911Z,100297.00
2022-09-20T22:51:39.490Z,100294.00
2022-09-20T22:54:10.109Z,100293.00
2022-09-20T22:56:39.332Z,100290.00
2022-09-20T22:59:10.232Z,100296.00
2022-09-20T23:01:42.289Z,100297.00
2022-09-20T23:04:14.292Z,100297.00
2022-09-20T23:06:44.155Z,100291.00
2022-09-20T23:09:15.083Z,100298.00
2022-09-20T23:11:43.923Z,100296.00
2022-09-20T23:14:13.938Z,100296.00
2022-09-20T23:16:42.792Z,100303.00
2022-09-20T23:19:13.518Z,100304.00
2022-09-20T23:21:43.486Z,100309.00
2022-09-20T23:24:14.490Z,100314.00
2022-09-20T23:26:43.828Z,100313.00
2022-09-20T23:29:15.299Z,100317.00
2022-09-20T23:31:46.726Z,100314.00
2022-09-20T23:34:17.832Z,100323.00
2022-09-20T23:36:46.822Z,100321.00
2022-09-20T23:39:15.527Z,100313.00
2022-09-20T23:41:48.336Z,100317.00
2022-09-20T23:44:18.628Z,100320.00
2022-09-20T23:46:46.496Z,100319.00
2022-09-20T23:49:15.696Z,100324.00
2022-09-20T23:51:43.587Z,100330.00
2022-09-20T23:54:11.470Z,100333.00
2022-09-20T23:56:40.202Z,100336.00
2022-09-20T23:59:07.997Z,100324.00
